Time;durP1;ratioP1;P1;durP2;ratioP2;P2;SDS_P1;SDS_P2;PMS_P1;PMS_P2;Temp;Humidity;BMP_temperature;BMP_pressure;BME280_temperature;BME280_humidity;BME280_pressure;Samples;Min_cycle;Max_cycle;Signal;HPM_P1;HPM_P2
2022/07/13 00:01:29;;;;;;;2.47;2.30;;;19.20;69.50;;;;;;5082925;28;20202;-76
2022/07/13 00:03:54;;;;;;;3.90;2.60;;;19.30;70.20;;;;;;5086080;28;20764;-74
2022/07/13 00:06:20;;;;;;;4.83;3.30;;;19.30;70.70;;;;;;5082365;28;20529;-72
2022/07/13 00:08:46;;;;;;;3.17;2.40;;;19.20;70.80;;;;;;5058487;28;20178;-76
2022/07/13 00:11:11;;;;;;;6.30;3.87;;;19.10;71.40;;;;;;5084436;28;20192;-75
2022/07/13 00:13:37;;;;;;;4.13;2.80;;;19.00;72.00;;;;;;5083371;28;20591;-74
2022/07/13 00:16:03;;;;;;;3.20;2.40;;;19.00;72.10;;;;;;5088772;28;20539;-75
2022/07/13 00:18:28;;;;;;;5.57;2.30;;;18.90;72.40;;;;;;5085591;28;20609;-74
2022/07/13 00:20:54;;;;;;;3.30;2.70;;;18.70;73.00;;;;;;5086631;28;20495;-73
2022/07/13 00:23:20;;;;;;;3.20;2.73;;;18.60;73.20;;;;;;5085898;28;20285;-75
2022/07/13 00:25:45;;;;;;;4.37;2.47;;;18.60;73.20;;;;;;5084447;28;20244;-74
2022/07/13 00:28:11;;;;;;;5.43;2.23;;;18.60;72.90;;;;;;5084125;28;20330;-75
2022/07/13 00:30:36;;;;;;;3.17;2.60;;;18.60;72.70;;;;;;5088866;28;20184;-74
2022/07/13 00:33:04;;;;;;;2.83;2.23;;;18.60;72.70;;;;;;5085208;28;20213;-74
2022/07/13 00:35:30;;;;;;;3.87;2.47;;;18.60;73.00;;;;;;5086265;28;20283;-75
2022/07/13 00:37:55;;;;;;;3.20;2.57;;;18.60;73.00;;;;;;5084454;28;20437;-75
2022/07/13 00:40:21;;;;;;;2.50;2.20;;;18.70;72.60;;;;;;5091303;28;20219;-75
2022/07/13 00:42:47;;;;;;;3.07;2.20;;;18.80;72.30;;;;;;5078205;28;20220;-72
2022/07/13 00:45:13;;;;;;;4.17;2.53;;;18.80;71.70;;;;;;5088545;28;20193;-74
2022/07/13 00:47:39;;;;;;;2.30;2.10;;;18.80;71.40;;;;;;5086453;28;20210;-76
2022/07/13 00:50:07;;;;;;;2.30;2.10;;;18.80;71.70;;;;;;5069588;28;20188;-76
2022/07/13 00:52:37;;;;;;;2.73;2.40;;;18.70;71.80;;;;;;5082308;28;20534;-75
2022/07/13 00:55:06;;;;;;;3.20;2.40;;;18.70;72.30;;;;;;5084263;28;20989;-76
2022/07/13 00:57:35;;;;;;;3.30;2.23;;;18.70;72.70;;;;;;5084190;28;20457;-73
2022/07/13 01:00:04;;;;;;;4.00;2.50;;;18.70;73.00;;;;;;5087089;28;20468;-74
2022/07/13 01:02:30;;;;;;;2.50;2.00;;;18.50;73.60;;;;;;5082461;28;20509;-74
2022/07/13 01:04:56;;;;;;;4.90;2.40;;;18.20;74.80;;;;;;5084138;28;20509;-75
2022/07/13 01:07:22;;;;;;;5.37;2.40;;;18.00;75.40;;;;;;5084202;28;20542;-74
2022/07/13 01:09:47;;;;;;;3.77;2.50;;;17.90;75.80;;;;;;5091656;28;20517;-76
2022/07/13 01:12:13;;;;;;;5.47;2.53;;;17.90;76.10;;;;;;5095334;28;20193;-73
2022/07/13 01:14:40;;;;;;;2.50;2.27;;;17.90;76.20;;;;;;5076436;28;20202;-73
2022/07/13 01:17:05;;;;;;;4.83;2.40;;;17.80;76.40;;;;;;5084495;28;20283;-73
2022/07/13 01:19:34;;;;;;;4.53;2.43;;;17.80;76.40;;;;;;5083903;28;20588;-73
2022/07/13 01:22:01;;;;;;;4.43;2.87;;;17.80;76.20;;;;;;5065025;28;20245;-72
2022/07/13 01:24:30;;;;;;;3.70;2.20;;;17.80;75.90;;;;;;5078073;28;20465;-75
2022/07/13 01:26:58;;;;;;;2.70;1.93;;;17.90;75.90;;;;;;5077855;28;20433;-74
2022/07/13 01:29:24;;;;;;;2.20;1.87;;;18.00;75.50;;;;;;5076297;28;20799;-74
2022/07/13 01:31:49;;;;;;;3.57;2.57;;;18.00;75.10;;;;;;5083696;28;20422;-74
2022/07/13 01:34:16;;;;;;;3.37;2.00;;;18.10;75.20;;;;;;5083837;28;20222;-74
2022/07/13 01:36:41;;;;;;;3.30;1.93;;;18.10;74.80;;;;;;5086527;28;20270;-73
2022/07/13 01:39:07;;;;;;;3.73;2.40;;;18.30;74.30;;;;;;5074137;28;20423;-74
2022/07/13 01:41:33;;;;;;;4.03;2.20;;;18.20;74.30;;;;;;5088480;28;20207;-74
2022/07/13 01:43:59;;;;;;;4.50;2.13;;;18.10;74.50;;;;;;5077072;28;20222;-73
2022/07/13 01:46:26;;;;;;;3.53;2.23;;;18.10;74.50;;;;;;5085468;28;20252;-73
2022/07/13 01:48:53;;;;;;;3.47;2.10;;;18.10;74.30;;;;;;5077869;28;20936;-73
2022/07/13 01:51:19;;;;;;;4.40;1.90;;;18.20;74.00;;;;;;5081997;28;20444;-73
2022/07/13 01:53:45;;;;;;;2.53;2.20;;;18.30;73.90;;;;;;5078351;28;20553;-75
2022/07/13 01:56:10;;;;;;;4.47;2.20;;;18.30;73.60;;;;;;5082487;28;20202;-75
2022/07/13 01:58:36;;;;;;;3.43;2.20;;;18.40;73.50;;;;;;5078803;28;20228;-73
2022/07/13 02:01:02;;;;;;;3.83;2.50;;;18.40;73.30;;;;;;5080761;28;20205;-73
2022/07/13 02:03:29;;;;;;;2.80;2.07;;;18.40;73.30;;;;;;5081961;28;20202;-72
2022/07/13 02:05:56;;;;;;;2.53;2.13;;;18.40;73.50;;;;;;5084925;28;20793;-73
2022/07/13 02:08:23;;;;;;;2.37;2.10;;;18.40;73.50;;;;;;5080923;28;20833;-74
2022/07/13 02:10:49;;;;;;;2.87;2.20;;;18.50;73.30;;;;;;5079914;28;20423;-74
2022/07/13 02:13:15;;;;;;;2.80;2.37;;;18.40;73.30;;;;;;5080593;28;20519;-73
2022/07/13 02:15:42;;;;;;;4.00;2.67;;;18.40;73.50;;;;;;5075995;28;20915;-74
2022/07/13 02:18:08;;;;;;;3.40;2.20;;;18.40;73.60;;;;;;5076532;28;20898;-74
2022/07/13 02:20:35;;;;;;;3.67;1.83;;;18.50;73.50;;;;;;5081641;28;20458;-72
2022/07/13 02:23:01;;;;;;;3.80;2.57;;;18.50;73.50;;;;;;5075872;28;20205;-73
2022/07/13 02:25:27;;;;;;;4.43;3.10;;;18.40;73.60;;;;;;5077217;28;20516;-74
2022/07/13 02:27:53;;;;;;;6.73;2.70;;;18.50;73.90;;;;;;5067173;28;20208;-74
2022/07/13 02:30:18;;;;;;;4.10;2.47;;;18.50;73.70;;;;;;5078000;28;20449;-73
2022/07/13 02:32:45;;;;;;;3.40;2.10;;;18.60;73.30;;;;;;5081851;28;20963;-74
2022/07/13 02:35:12;;;;;;;3.40;2.10;;;18.60;73.20;;;;;;5073216;28;20193;-75
2022/07/13 02:37:39;;;;;;;2.33;2.00;;;18.60;73.20;;;;;;5085959;28;20416;-75
2022/07/13 02:40:06;;;;;;;2.80;2.30;;;18.50;73.50;;;;;;5073175;28;20467;-75
2022/07/13 02:42:32;;;;;;;3.47;2.10;;;18.50;73.60;;;;;;5081796;28;20458;-73
2022/07/13 02:44:58;;;;;;;3.30;2.40;;;18.40;73.70;;;;;;5076240;28;20463;-74
2022/07/13 02:47:23;;;;;;;2.43;2.13;;;18.40;73.90;;;;;;5086393;28;20189;-72
2022/07/13 02:49:49;;;;;;;3.13;2.03;;;18.30;74.30;;;;;;5061590;28;20195;-74
2022/07/13 02:52:15;;;;;;;2.87;2.23;;;18.30;74.20;;;;;;5089192;28;20280;-73
2022/07/13 02:54:41;;;;;;;2.37;2.23;;;18.30;74.50;;;;;;5086403;28;20275;-73
2022/07/13 02:57:07;;;;;;;6.20;2.10;;;18.30;74.20;;;;;;5082831;28;20840;-73
2022/07/13 02:59:36;;;;;;;2.33;2.20;;;18.30;74.30;;;;;;5080570;28;20210;-74
2022/07/13 03:02:03;;;;;;;2.40;1.97;;;18.20;74.60;;;;;;5086122;28;20195;-75
2022/07/13 03:04:29;;;;;;;3.70;2.47;;;18.10;74.90;;;;;;5079995;28;20448;-74
2022/07/13 03:06:55;;;;;;;3.93;2.33;;;18.10;75.20;;;;;;5086767;28;20415;-74
2022/07/13 03:09:20;;;;;;;4.33;2.33;;;18.10;75.10;;;;;;5082511;28;20420;-73
2022/07/13 03:11:46;;;;;;;4.17;2.60;;;18.10;75.20;;;;;;5082968;28;20172;-74
2022/07/13 03:14:12;;;;;;;3.00;2.00;;;18.10;75.40;;;;;;5083383;28;20241;-74
2022/07/13 03:16:37;;;;;;;5.40;2.73;;;18.20;75.20;;;;;;5090191;28;20263;-73
2022/07/13 03:19:03;;;;;;;4.30;2.50;;;18.20;75.20;;;;;;5083564;28;20181;-76
2022/07/13 03:21:29;;;;;;;3.43;2.37;;;18.10;75.50;;;;;;5068499;28;20684;-73
2022/07/13 03:23:55;;;;;;;5.40;2.30;;;18.00;75.80;;;;;;5085954;28;20207;-74
2022/07/13 03:26:21;;;;;;;2.80;2.40;;;18.00;76.10;;;;;;5084789;28;20181;-75
2022/07/13 03:28:47;;;;;;;5.87;2.40;;;18.00;76.10;;;;;;5083317;28;21217;-75
2022/07/13 03:31:13;;;;;;;3.83;2.47;;;18.00;76.20;;;;;;5081977;28;20418;-76
2022/07/13 03:33:38;;;;;;;4.43;2.63;;;17.90;76.40;;;;;;5084942;28;20466;-75
2022/07/13 03:36:04;;;;;;;3.17;2.47;;;17.90;76.50;;;;;;5086778;28;20184;-75
2022/07/13 03:38:31;;;;;;;4.57;2.67;;;17.80;76.80;;;;;;5084262;28;20249;-76
2022/07/13 03:40:56;;;;;;;3.77;2.57;;;17.80;77.10;;;;;;5080764;28;20464;-75
2022/07/13 03:43:22;;;;;;;3.87;2.30;;;17.70;77.30;;;;;;5084445;28;20821;-74
2022/07/13 03:45:48;;;;;;;4.27;2.80;;;17.70;77.60;;;;;;5089297;28;20229;-73
2022/07/13 03:48:16;;;;;;;3.50;2.27;;;17.60;77.80;;;;;;5087888;28;20186;-74
2022/07/13 03:50:42;;;;;;;4.70;2.70;;;17.50;77.80;;;;;;5081365;28;20229;-74
2022/07/13 03:53:08;;;;;;;3.70;2.67;;;17.50;78.30;;;;;;5085283;28;20534;-73
2022/07/13 03:55:33;;;;;;;3.33;2.83;;;17.50;78.30;;;;;;5089022;28;20496;-75
2022/07/13 03:57:59;;;;;;;3.07;2.60;;;17.50;78.30;;;;;;5076439;28;20255;-75
2022/07/13 04:00:25;;;;;;;3.00;2.20;;;17.50;78.10;;;;;;5070896;28;20196;-73
2022/07/13 04:02:50;;;;;;;3.43;2.37;;;17.50;78.10;;;;;;5086827;28;20226;-75
2022/07/13 04:05:16;;;;;;;2.63;1.90;;;17.50;78.10;;;;;;5091023;28;20184;-74
2022/07/13 04:07:41;;;;;;;3.47;2.53;;;17.50;78.30;;;;;;5092666;28;20267;-75
2022/07/13 04:10:08;;;;;;;2.90;2.10;;;17.40;78.30;;;;;;5074856;28;20208;-73
2022/07/13 04:12:33;;;;;;;3.57;2.30;;;17.50;78.30;;;;;;5066407;28;20194;-73
2022/07/13 04:14:59;;;;;;;2.70;2.37;;;17.50;78.30;;;;;;5083431;28;20421;-75
2022/07/13 04:17:24;;;;;;;4.10;2.57;;;17.40;78.70;;;;;;5077926;28;20644;-75
2022/07/13 04:19:50;;;;;;;4.30;2.30;;;17.30;79.00;;;;;;5082461;28;20222;-75
2022/07/13 04:22:16;;;;;;;4.57;2.60;;;17.30;78.70;;;;;;5071604;28;20182;-75
2022/07/13 04:24:41;;;;;;;2.70;2.47;;;17.30;79.00;;;;;;5088320;28;20191;-76
2022/07/13 04:27:07;;;;;;;4.50;2.30;;;17.40;78.70;;;;;;5084148;28;20198;-74
2022/07/13 04:29:33;;;;;;;3.70;2.40;;;17.40;78.70;;;;;;5088261;28;20179;-76
2022/07/13 04:31:59;;;;;;;3.07;2.20;;;17.40;79.00;;;;;;5085258;28;20225;-75
2022/07/13 04:34:24;;;;;;;4.53;3.00;;;17.40;78.70;;;;;;5084829;28;20206;-75
2022/07/13 04:36:51;;;;;;;4.07;2.60;;;17.50;78.40;;;;;;5091391;28;20274;-76
2022/07/13 04:39:17;;;;;;;3.23;2.30;;;17.40;78.70;;;;;;5085740;28;20186;-75
2022/07/13 04:41:43;;;;;;;3.93;2.57;;;17.40;78.60;;;;;;5064041;28;20428;-76
2022/07/13 04:44:09;;;;;;;5.33;2.20;;;17.50;78.60;;;;;;5076985;28;20199;-75
2022/07/13 04:46:34;;;;;;;3.40;2.50;;;17.50;78.60;;;;;;5090532;28;20519;-74
2022/07/13 04:49:00;;;;;;;2.70;2.27;;;17.60;78.40;;;;;;5085089;28;20405;-74
2022/07/13 04:51:25;;;;;;;3.53;2.60;;;17.60;78.30;;;;;;5081306;28;20237;-74
2022/07/13 04:53:51;;;;;;;4.07;2.60;;;17.70;78.10;;;;;;5084824;28;20238;-76
2022/07/13 04:56:17;;;;;;;3.80;2.50;;;17.70;78.30;;;;;;5083787;28;20179;-75
2022/07/13 04:58:42;;;;;;;3.53;2.67;;;17.90;78.10;;;;;;5088376;28;20171;-76
2022/07/13 05:01:08;;;;;;;3.00;2.10;;;17.90;77.80;;;;;;5079886;28;20237;-74
2022/07/13 05:03:34;;;;;;;3.13;2.30;;;18.00;77.60;;;;;;5082391;28;20287;-73
2022/07/13 05:06:00;;;;;;;4.63;2.70;;;18.00;77.70;;;;;;5082891;28;20545;-74
2022/07/13 05:08:26;;;;;;;3.80;2.20;;;18.10;77.70;;;;;;5071064;28;20423;-74
2022/07/13 05:10:53;;;;;;;5.90;2.40;;;18.20;76.80;;;;;;5081343;28;20593;-74
2022/07/13 05:13:18;;;;;;;3.80;2.60;;;18.30;75.90;;;;;;5084802;28;20458;-73
2022/07/13 05:15:45;;;;;;;3.30;2.57;;;18.40;75.50;;;;;;5085411;28;20549;-74
2022/07/13 05:18:10;;;;;;;3.97;2.17;;;18.40;75.50;;;;;;5087748;28;20557;-75
2022/07/13 05:20:36;;;;;;;5.60;2.40;;;18.50;75.20;;;;;;5084742;28;20470;-75
2022/07/13 05:23:02;;;;;;;2.83;2.30;;;18.70;74.80;;;;;;5071586;28;20519;-73
2022/07/13 05:25:28;;;;;;;3.97;2.40;;;18.70;74.60;;;;;;5087485;28;20177;-73
2022/07/13 05:27:53;;;;;;;2.73;2.17;;;18.80;74.50;;;;;;5099884;28;20791;-73
2022/07/13 05:30:19;;;;;;;3.93;2.43;;;18.90;74.00;;;;;;5097686;28;20216;-74
2022/07/13 05:32:45;;;;;;;4.10;2.73;;;19.00;73.60;;;;;;5087175;28;20214;-74
2022/07/13 05:35:11;;;;;;;4.10;2.57;;;19.00;73.70;;;;;;5085363;28;20195;-74
2022/07/13 05:37:37;;;;;;;5.37;2.90;;;19.10;73.60;;;;;;5071683;28;20182;-74
2022/07/13 05:40:03;;;;;;;3.80;2.17;;;19.20;73.30;;;;;;5083382;28;20465;-74
2022/07/13 05:42:30;;;;;;;3.37;2.30;;;19.40;72.70;;;;;;5078444;28;20194;-74
2022/07/13 05:44:55;;;;;;;5.73;2.50;;;19.50;72.40;;;;;;5085942;28;21061;-74
2022/07/13 05:47:21;;;;;;;5.07;2.70;;;19.60;72.10;;;;;;5066698;28;20423;-74
2022/07/13 05:49:47;;;;;;;2.90;2.07;;;19.70;71.70;;;;;;5087137;28;20213;-75
2022/07/13 05:52:12;;;;;;;4.10;2.40;;;19.70;71.60;;;;;;5087190;28;20187;-73
2022/07/13 05:54:38;;;;;;;4.60;2.30;;;19.80;71.60;;;;;;5070383;28;20211;-74
2022/07/13 05:57:03;;;;;;;5.00;2.60;;;19.80;71.40;;;;;;5090539;28;20237;-74
2022/07/13 05:59:29;;;;;;;4.07;2.63;;;19.90;71.30;;;;;;5088975;28;20188;-76
2022/07/13 06:01:55;;;;;;;8.33;2.53;;;20.00;71.00;;;;;;5083711;28;20195;-75
2022/07/13 06:04:21;;;;;;;3.10;2.33;;;20.00;71.10;;;;;;5088687;28;20202;-76
2022/07/13 06:06:47;;;;;;;6.50;2.90;;;20.10;71.30;;;;;;5082696;28;20908;-76
2022/07/13 06:09:13;;;;;;;7.47;3.50;;;20.20;71.00;;;;;;5073214;28;20197;-75
2022/07/13 06:11:42;;;;;;;4.80;2.40;;;20.20;70.80;;;;;;5085751;28;20432;-76
2022/07/13 06:14:08;;;;;;;7.50;3.07;;;20.30;70.70;;;;;;5082913;28;20591;-76
2022/07/13 06:16:34;;;;;;;4.27;3.00;;;20.50;70.70;;;;;;5085071;28;20442;-75
2022/07/13 06:18:59;;;;;;;5.83;2.87;;;20.70;70.10;;;;;;5090484;28;20425;-75
2022/07/13 06:21:25;;;;;;;7.30;4.37;;;20.90;69.50;;;;;;5092932;28;20207;-76
2022/07/13 06:23:50;;;;;;;16.07;6.87;;;21.00;69.20;;;;;;5088280;28;20727;-77
2022/07/13 06:26:16;;;;;;;6.17;3.00;;;21.20;69.10;;;;;;5088892;28;20211;-76
2022/07/13 06:28:42;;;;;;;4.00;3.27;;;21.30;68.20;;;;;;5075841;28;20186;-76
2022/07/13 06:31:07;;;;;;;5.43;3.63;;;21.40;67.90;;;;;;5089994;28;20242;-75
2022/07/13 06:33:35;;;;;;;7.30;4.00;;;21.40;68.00;;;;;;5097031;28;20216;-78
2022/07/13 06:36:01;;;;;;;6.03;4.00;;;21.40;67.60;;;;;;5094169;28;20182;-77
2022/07/13 06:38:26;;;;;;;11.50;4.53;;;21.50;68.00;;;;;;5090656;28;20436;-77
2022/07/13 06:40:52;;;;;;;10.33;4.00;;;21.40;68.30;;;;;;5094411;28;20693;-76
2022/07/13 06:43:18;;;;;;;30.07;5.43;;;21.50;68.30;;;;;;5068796;28;20225;-76
2022/07/13 06:45:43;;;;;;;10.00;4.37;;;21.60;67.90;;;;;;5093209;28;20585;-77
2022/07/13 06:48:09;;;;;;;14.43;4.97;;;21.70;67.70;;;;;;5082359;28;20185;-74
2022/07/13 06:50:34;;;;;;;9.47;4.60;;;21.80;67.90;;;;;;5070827;28;20601;-72
2022/07/13 06:53:01;;;;;;;11.17;4.87;;;21.70;68.50;;;;;;5065855;28;20234;-73
2022/07/13 06:55:27;;;;;;;14.90;4.30;;;21.70;68.50;;;;;;5089654;28;20185;-75
2022/07/13 06:57:53;;;;;;;8.63;4.97;;;21.60;68.60;;;;;;5081720;28;21420;-75
2022/07/13 07:00:18;;;;;;;9.50;5.00;;;21.60;68.20;;;;;;5089922;28;20220;-73
2022/07/13 07:02:44;;;;;;;8.83;3.80;;;21.70;68.00;;;;;;5068850;28;20228;-76
2022/07/13 07:05:10;;;;;;;7.07;4.20;;;21.80;67.30;;;;;;5094443;28;20272;-74
2022/07/13 07:07:39;;;;;;;8.03;3.13;;;21.80;66.70;;;;;;5085640;28;20544;-74
2022/07/13 07:10:06;;;;;;;13.30;3.13;;;21.80;65.60;;;;;;5073377;28;20435;-73
2022/07/13 07:12:32;;;;;;;9.53;3.30;;;21.90;65.70;;;;;;5088696;28;20433;-74
2022/07/13 07:14:58;;;;;;;5.63;2.23;;;22.10;63.80;;;;;;5089118;28;20458;-73
2022/07/13 07:17:23;;;;;;;6.93;2.57;;;22.20;61.60;;;;;;5079986;28;20213;-73
2022/07/13 07:19:49;;;;;;;4.30;2.10;;;22.20;61.30;;;;;;5089816;28;20237;-73
2022/07/13 07:22:15;;;;;;;3.80;2.23;;;22.20;60.70;;;;;;5081955;28;20664;-72
2022/07/13 07:24:41;;;;;;;1.90;1.57;;;22.40;60.30;;;;;;5085270;28;20238;-74
2022/07/13 07:27:09;;;;;;;2.97;1.87;;;22.50;60.30;;;;;;5092189;28;20651;-74
2022/07/13 07:29:34;;;;;;;3.10;1.80;;;22.70;59.30;;;;;;5093594;28;20896;-74
2022/07/13 07:32:01;;;;;;;4.83;2.00;;;22.80;58.80;;;;;;5090082;28;20488;-73
2022/07/13 07:34:28;;;;;;;5.40;2.47;;;23.00;59.10;;;;;;5090489;28;20200;-75
2022/07/13 07:36:54;;;;;;;4.10;2.03;;;23.10;58.90;;;;;;5088633;28;20458;-74
2022/07/13 07:39:20;;;;;;;3.60;1.77;;;23.10;58.50;;;;;;5081961;28;20519;-73
2022/07/13 07:41:45;;;;;;;6.00;2.23;;;23.30;58.40;;;;;;5073666;28;20469;-74
2022/07/13 07:44:11;;;;;;;3.17;2.43;;;23.40;57.70;;;;;;5064678;28;20205;-74
2022/07/13 07:46:37;;;;;;;4.90;1.90;;;23.60;57.80;;;;;;5082183;28;20176;-74
2022/07/13 07:49:05;;;;;;;3.30;2.27;;;23.90;56.80;;;;;;5086139;28;20181;-74
2022/07/13 07:51:30;;;;;;;3.87;2.10;;;24.00;56.40;;;;;;5091838;28;20194;-75
2022/07/13 07:53:56;;;;;;;4.20;2.03;;;24.10;56.60;;;;;;5085875;28;20465;-73
2022/07/13 07:56:23;;;;;;;6.10;2.63;;;24.40;55.70;;;;;;5087882;28;20628;-73
2022/07/13 07:58:49;;;;;;;3.70;2.10;;;24.60;55.20;;;;;;5093940;28;20184;-74
2022/07/13 08:01:15;;;;;;;7.60;2.50;;;25.00;54.80;;;;;;5087884;28;20463;-73
2022/07/13 08:03:40;;;;;;;5.80;2.13;;;25.30;52.80;;;;;;5081364;28;20205;-74
2022/07/13 08:06:06;;;;;;;4.03;2.10;;;25.60;52.90;;;;;;5086090;28;20287;-74
2022/07/13 08:08:32;;;;;;;5.47;2.00;;;25.60;50.70;;;;;;5080912;28;20173;-75
2022/07/13 08:10:58;;;;;;;3.73;2.20;;;25.80;50.20;;;;;;5081984;28;20876;-73
2022/07/13 08:13:23;;;;;;;4.03;1.53;;;25.90;49.70;;;;;;5090100;28;20280;-73
2022/07/13 08:15:49;;;;;;;2.17;1.77;;;26.20;48.10;;;;;;5088127;28;20667;-74
2022/07/13 08:18:15;;;;;;;4.37;2.30;;;26.40;47.40;;;;;;5087312;28;20225;-72
2022/07/13 08:20:40;;;;;;;5.03;2.57;;;26.60;46.20;;;;;;5069709;28;20200;-74
2022/07/13 08:23:51;;;;;;;5.53;3.10;;;26.70;46.90;;;;;;5079997;28;20624;-74
2022/07/13 08:25:52;;;;;;;11.07;4.90;;;26.80;50.50;;;;;;5086213;28;20243;-74
2022/07/13 08:28:17;;;;;;;8.70;3.73;;;27.10;49.90;;;;;;5087560;28;20791;-72
2022/07/13 08:30:43;;;;;;;6.67;3.33;;;27.30;50.30;;;;;;5069094;28;20212;-74
2022/07/13 08:33:08;;;;;;;6.70;3.30;;;27.00;51.40;;;;;;5084281;28;20214;-75
2022/07/13 08:38:35;;;;;;;3.53;1.70;;;27.00;48.60;;;;;;5088269;28;20189;-73
2022/07/13 08:41:01;;;;;;;4.40;2.00;;;27.20;44.70;;;;;;5087385;28;20471;-75
2022/07/13 08:43:27;;;;;;;2.60;1.90;;;27.30;45.00;;;;;;5087018;28;20466;-72
2022/07/13 08:45:53;;;;;;;1.60;1.40;;;27.40;43.50;;;;;;5083557;28;20447;-75
2022/07/13 08:48:25;;;;;;;2.90;1.70;;;27.50;43.10;;;;;;5085946;28;20832;-74
2022/07/13 08:50:51;;;;;;;2.63;1.50;;;27.50;43.70;;;;;;5076899;28;20195;-74
2022/07/13 08:53:16;;;;;;;2.00;1.70;;;27.50;43.10;;;;;;5078225;28;20468;-74
2022/07/13 08:55:42;;;;;;;3.13;1.90;;;27.50;43.90;;;;;;5085400;28;20448;-74
2022/07/13 08:58:09;;;;;;;5.47;2.47;;;27.40;44.20;;;;;;5088280;28;20207;-76
2022/07/13 09:00:35;;;;;;;2.20;1.70;;;27.40;45.70;;;;;;5082815;28;20999;-74
2022/07/13 09:03:00;;;;;;;3.53;1.87;;;27.30;44.90;;;;;;5085564;28;20472;-73
2022/07/13 09:05:26;;;;;;;3.40;2.00;;;27.10;43.40;;;;;;5084438;28;20196;-74
2022/07/13 09:08:08;;;;;;;3.53;1.70;;;27.00;43.90;;;;;;5081496;28;20183;-74
2022/07/13 09:10:53;;;;;;;3.57;1.80;;;27.10;44.20;;;;;;5083536;28;20424;-74
2022/07/13 09:13:41;;;;;;;3.57;1.90;;;27.10;44.10;;;;;;5088539;28;20459;-75
2022/07/13 09:16:19;;;;;;;2.60;2.03;;;26.90;44.50;;;;;;5069588;28;20451;-73
2022/07/13 09:19:01;;;;;;;2.53;2.10;;;26.90;44.90;;;;;;5079775;28;20444;-73
2022/07/13 09:21:30;;;;;;;4.67;2.00;;;26.90;44.60;;;;;;5087036;28;20860;-73
2022/07/13 09:24:01;;;;;;;5.40;2.40;;;26.90;44.50;;;;;;5085394;28;20478;-73
2022/07/13 09:26:53;;;;;;;3.00;1.77;;;26.90;44.60;;;;;;5088188;28;20433;-73
2022/07/13 09:29:21;;;;;;;6.23;1.80;;;27.00;44.90;;;;;;5077505;28;20426;-74
2022/07/13 09:31:53;;;;;;;3.63;1.83;;;26.90;44.70;;;;;;5080930;28;20449;-73
2022/07/13 09:34:20;;;;;;;3.30;1.90;;;27.00;45.40;;;;;;5076481;28;20821;-73
2022/07/13 09:37:06;;;;;;;1.97;1.50;;;26.90;46.10;;;;;;5087901;28;20474;-73
2022/07/13 09:39:31;;;;;;;3.60;1.70;;;27.00;45.10;;;;;;5061692;28;20524;-74
2022/07/13 09:41:57;;;;;;;2.53;1.73;;;27.10;43.90;;;;;;5078603;28;20850;-72
2022/07/13 09:47:08;;;;;;;12.10;2.10;;;27.20;43.10;;;;;;5090034;28;20228;-73
2022/07/13 09:49:37;;;;;;;1.57;1.53;;;27.20;43.70;;;;;;5098178;28;20481;-74
2022/07/13 09:52:08;;;;;;;3.30;2.30;;;27.10;43.70;;;;;;5086363;28;20418;-74
2022/07/13 09:54:35;;;;;;;3.57;1.80;;;27.20;42.60;;;;;;5076138;28;20485;-73
2022/07/13 09:57:05;;;;;;;2.60;1.50;;;27.30;40.60;;;;;;5083211;28;20517;-74
2022/07/13 09:59:31;;;;;;;3.50;2.00;;;27.40;39.40;;;;;;5082635;28;20496;-74
2022/07/13 10:01:57;;;;;;;3.60;1.70;;;27.30;39.60;;;;;;5077931;28;20491;-74
2022/07/13 10:04:24;;;;;;;2.20;1.60;;;27.10;39.60;;;;;;5084026;28;20465;-74
2022/07/13 10:06:50;;;;;;;3.00;1.63;;;27.20;39.90;;;;;;5079554;28;20848;-73
2022/07/13 10:09:34;;;;;;;2.30;1.63;;;27.50;39.80;;;;;;5062840;28;20874;-75
2022/07/13 10:12:01;;;;;;;4.60;1.90;;;27.50;39.90;;;;;;5077334;28;20414;-73
2022/07/13 10:14:27;;;;;;;3.30;1.70;;;27.70;39.60;;;;;;5084334;28;20453;-73
2022/07/13 10:17:12;;;;;;;4.10;1.67;;;28.10;36.70;;;;;;5083547;28;20410;-75
2022/07/13 10:19:58;;;;;;;1.60;1.50;;;28.60;36.30;;;;;;5058564;28;20421;-74
2022/07/13 10:22:28;;;;;;;2.00;1.70;;;29.00;37.00;;;;;;5081343;28;20479;-73
2022/07/13 10:24:59;;;;;;;1.83;1.50;;;29.40;34.50;;;;;;5085380;28;20432;-73
2022/07/13 10:27:32;;;;;;;1.70;1.40;;;29.90;31.10;;;;;;5078173;28;20501;-74
2022/07/13 10:30:01;;;;;;;4.23;2.37;;;30.50;31.50;;;;;;5074710;28;20923;-75
2022/07/13 10:32:29;;;;;;;2.33;1.80;;;30.80;28.30;;;;;;5082840;28;20811;-73
2022/07/13 10:35:10;;;;;;;1.40;1.20;;;31.10;29.00;;;;;;5083276;28;20433;-74
2022/07/13 10:38:00;;;;;;;3.30;1.60;;;31.10;28.40;;;;;;5083976;28;20409;-75
2022/07/13 10:40:27;;;;;;;2.67;1.70;;;31.40;27.60;;;;;;5083364;28;20492;-74
2022/07/13 10:43:04;;;;;;;3.07;1.87;;;31.50;28.00;;;;;;5080790;28;20456;-74
2022/07/13 10:45:43;;;;;;;4.90;2.87;;;31.10;28.00;;;;;;5084066;28;20409;-76
2022/07/13 10:48:31;;;;;;;3.00;1.50;;;31.20;28.70;;;;;;5075096;28;20440;-74
2022/07/13 10:50:58;;;;;;;1.63;1.53;;;31.50;28.60;;;;;;5080212;28;20424;-75
2022/07/13 10:53:39;;;;;;;5.30;2.37;;;31.80;27.80;;;;;;5080837;28;20536;-74
2022/07/13 10:56:19;;;;;;;2.17;1.50;;;32.00;27.50;;;;;;5086589;28;20421;-73
2022/07/13 10:58:46;;;;;;;1.70;1.30;;;32.40;26.90;;;;;;5082929;28;20484;-75
2022/07/13 11:01:30;;;;;;;1.30;1.03;;;32.80;25.90;;;;;;5085410;28;21055;-73
2022/07/13 11:03:56;;;;;;;1.50;1.13;;;32.90;25.40;;;;;;5077758;28;21018;-73
2022/07/13 11:06:23;;;;;;;2.17;1.47;;;32.70;25.90;;;;;;5077051;28;20418;-74
2022/07/13 11:09:08;;;;;;;2.57;1.50;;;32.50;26.20;;;;;;5083285;28;20421;-73
2022/07/13 11:11:46;;;;;;;3.13;1.80;;;32.60;25.70;;;;;;5084249;28;20911;-76
2022/07/13 11:14:38;;;;;;;1.53;1.30;;;31.90;24.50;;;;;;5091009;28;20449;-78
2022/07/13 11:17:11;;;;;;;4.93;1.57;;;31.80;25.40;;;;;;5085932;28;20422;-76
2022/07/13 11:19:57;;;;;;;2.67;1.20;;;31.90;25.80;;;;;;5092181;28;20508;-76
2022/07/13 11:22:25;;;;;;;3.53;1.70;;;32.30;26.10;;;;;;5091084;28;20421;-78
2022/07/13 11:25:14;;;;;;;1.27;1.10;;;32.70;25.40;;;;;;5091197;28;20437;-77
2022/07/13 11:28:03;;;;;;;1.50;1.40;;;32.60;24.00;;;;;;5088760;28;20433;-76
2022/07/13 11:30:31;;;;;;;1.30;1.20;;;32.30;24.60;;;;;;5062345;28;20453;-76
2022/07/13 11:32:58;;;;;;;1.53;1.27;;;32.50;25.60;;;;;;5088879;28;20465;-75
2022/07/13 11:35:24;;;;;;;2.97;1.70;;;32.70;25.20;;;;;;5083498;28;20445;-76
2022/07/13 11:37:51;;;;;;;4.37;3.20;;;32.40;24.80;;;;;;5090326;28;20792;-78
2022/07/13 11:40:27;;;;;;;2.87;2.23;;;32.30;25.20;;;;;;5085128;28;20457;-77
2022/07/13 11:42:53;;;;;;;2.03;1.60;;;32.40;25.20;;;;;;5092807;28;20457;-76
2022/07/13 11:45:25;;;;;;;2.37;1.80;;;32.70;26.10;;;;;;5092052;28;20422;-78
2022/07/13 11:47:54;;;;;;;2.40;1.30;;;33.20;24.60;;;;;;5087771;28;20231;-78
2022/07/13 11:50:19;;;;;;;2.47;1.30;;;33.10;24.10;;;;;;5091847;28;21086;-76
2022/07/13 11:52:45;;;;;;;3.87;1.60;;;32.80;24.20;;;;;;5084490;28;20438;-76
2022/07/13 11:55:11;;;;;;;2.47;1.20;;;33.20;25.10;;;;;;5094138;28;20199;-76
2022/07/13 11:57:37;;;;;;;3.13;1.40;;;33.70;23.00;;;;;;5086636;28;20192;-77
2022/07/13 12:00:06;;;;;;;1.83;1.10;;;33.70;22.30;;;;;;5091777;28;20209;-76
2022/07/13 12:02:31;;;;;;;1.87;1.27;;;33.70;22.10;;;;;;5089384;28;20573;-77
2022/07/13 12:04:57;;;;;;;3.53;1.40;;;33.80;22.40;;;;;;5090870;28;20460;-75
2022/07/13 12:07:24;;;;;;;1.80;1.23;;;33.60;22.40;;;;;;5088803;28;20547;-77
2022/07/13 12:09:55;;;;;;;1.47;1.00;;;33.60;21.80;;;;;;5091635;28;20281;-76
2022/07/13 12:12:32;;;;;;;2.13;1.30;;;33.80;22.00;;;;;;5089112;28;20526;-76
2022/07/13 12:14:59;;;;;;;1.33;1.30;;;34.20;21.10;;;;;;5090167;28;20440;-79
2022/07/13 12:17:27;;;;;;;1.30;1.10;;;33.80;22.10;;;;;;5084104;28;20431;-75
2022/07/13 12:20:07;;;;;;;1.67;1.30;;;33.20;22.00;;;;;;5091716;28;20465;-80
2022/07/13 12:22:33;;;;;;;3.33;1.40;;;33.30;23.50;;;;;;5082891;28;20439;-77
2022/07/13 12:24:59;;;;;;;1.50;1.43;;;33.30;23.50;;;;;;5092122;28;20429;-78
2022/07/13 12:27:31;;;;;;;1.80;1.20;;;33.50;23.10;;;;;;5091140;28;20247;-77
2022/07/13 12:30:07;;;;;;;2.23;1.03;;;33.70;23.10;;;;;;5090185;28;20195;-76
2022/07/13 12:32:33;;;;;;;2.17;1.30;;;34.00;23.90;;;;;;5083390;28;20421;-77
2022/07/13 12:34:58;;;;;;;1.57;1.30;;;34.00;25.00;;;;;;5080797;28;20920;-77
2022/07/13 12:37:37;;;;;;;2.70;1.40;;;34.10;22.80;;;;;;5091219;28;20558;-77
2022/07/13 12:40:04;;;;;;;1.37;1.20;;;33.80;22.40;;;;;;5083318;28;20207;-76
2022/07/13 12:42:32;;;;;;;1.53;1.30;;;33.60;22.80;;;;;;5087694;28;20945;-76
2022/07/13 12:44:58;;;;;;;2.13;1.30;;;33.30;23.80;;;;;;5082857;28;20446;-77
2022/07/13 12:47:26;;;;;;;1.80;1.27;;;33.40;24.00;;;;;;5085039;28;20474;-76
2022/07/13 12:49:52;;;;;;;1.30;1.00;;;33.80;24.70;;;;;;5074090;28;20483;-73
2022/07/13 12:52:19;;;;;;;2.30;1.10;;;33.80;22.20;;;;;;5079172;28;20417;-75
2022/07/13 12:54:48;;;;;;;2.13;1.27;;;33.30;22.90;;;;;;5074986;28;20203;-75